This is the latest recevied weather packets stored in our database for station/object KO4LCK. If no packets are shown the sender has not sent any weather packets the latest 1 day(s).
| Time | Temp. | Humidity | Pressure | Rain* | Wind** | Luminosity | Snow |
|---|---|---|---|---|---|---|---|
| 1778036962 | 21.11° C | 58% | 1013.5 hPa | 0 mm | 0 m/s | 0 W/m² | - |
| 1778036660 | 20.56° C | 59% | 1013.6 hPa | 0 mm | 0 m/s | 0 W/m² | - |
| 1778036357 | 20.56° C | 60% | 1013.8 hPa | 0 mm | 0 m/s | 0 W/m² | - |
| 1778036054 | 21.11° C | 65% | 1014 hPa | 0 mm | 0 m/s | 0 W/m² | - |
| 1778035750 | 21.11° C | 60% | 1013.8 hPa | 0 mm | 0 m/s | 0 W/m² | - |
| 1778035448 | 21.11° C | 59% | 1013.9 hPa | 0 mm | 0 m/s | 0 W/m² | - |
| 1778035143 | 21.11° C | 57% | 1013.7 hPa | 0 mm | 0.45 m/s, 186° | 0 W/m² | - |
| 1778034841 | 21.11° C | 57% | 1013.7 hPa | 0 mm | 0 m/s | 0 W/m² | - |
| 1778034537 | 20.56° C | 59% | 1013.8 hPa | 0 mm | 0 m/s | 0 W/m² | - |
| 1778034235 | 21.11° C | 62% | 1013.8 hPa | 0 mm | 0 m/s | 0 W/m² | - |
| 1778033932 | 21.11° C | 58% | 1013.6 hPa | 0 mm | 0 m/s | 0 W/m² | - |
| 1778033629 | 21.11° C | 59% | 1013.7 hPa | 0 mm | 0 m/s | 0 W/m² | - |
| 1778033326 | 21.11° C | 58% | 1013.7 hPa | 0 mm | 0 m/s | 0 W/m² | - |
| 1778033024 | 21.11° C | 57% | 1013.6 hPa | 0 mm | 0 m/s | 0 W/m² | - |
| 1778032721 | 21.67° C | 58% | 1013.4 hPa | 0 mm | 0 m/s | 0 W/m² | - |
| 1778032419 | 21.67° C | 56% | 1013.4 hPa | 0 mm | 0 m/s | 0 W/m² | - |
| 1778032115 | 21.67° C | 56% | 1013.4 hPa | 0 mm | 0 m/s | 0 W/m² | - |
| 1778031812 | 21.67° C | 56% | 1013.4 hPa | 0 mm | 0 m/s | 0 W/m² | - |
| 1778031509 | 21.67° C | 56% | 1013.2 hPa | 0 mm | 0 m/s | 0 W/m² | - |
| 1778031206 | 21.67° C | 55% | 1013.4 hPa | 0 mm | 0 m/s | 0 W/m² | - |
| 1778030902 | 21.67° C | 55% | 1013.5 hPa | 0 mm | 0 m/s | 0 W/m² | - |
| 1778030600 | 21.67° C | 55% | 1013.3 hPa | 0 mm | 0 m/s | 0 W/m² | - |
| 1778030297 | 21.67° C | 56% | 1013.3 hPa | 0 mm | 0 m/s | 0 W/m² | - |
| 1778029993 | 21.67° C | 56% | 1013.4 hPa | 0 mm | 0 m/s | 0 W/m² | - |
| 1778029691 | 21.67° C | 55% | 1013.4 hPa | 0 mm | 0 m/s | 0 W/m² | - |
* Rain latest hour (hover to see other rain measurements)
** Current wind speed in m/s (hover to see current wind gust speed)